createdAt,value
2023-01-23T00:01:16.009Z,3.19
2023-01-23T00:03:43.147Z,3.16
2023-01-23T00:06:14.071Z,3.15
2023-01-23T00:08:41.529Z,3.13
2023-01-23T00:11:09.544Z,3.15
2023-01-23T00:13:36.608Z,3.15
2023-01-23T00:16:10.546Z,3.11
2023-01-23T00:18:37.246Z,3.06
2023-01-23T00:21:04.937Z,3.05
2023-01-23T00:23:31.950Z,3.03
2023-01-23T00:26:08.638Z,3.04
2023-01-23T00:28:35.437Z,3.03
2023-01-23T00:31:03.059Z,3.03
2023-01-23T00:33:29.837Z,3.02
2023-01-23T00:35:56.696Z,2.99
2023-01-23T00:38:23.401Z,3.02
2023-01-23T00:40:50.907Z,2.99
2023-01-23T00:43:17.592Z,2.97
2023-01-23T00:45:44.212Z,2.93
2023-01-23T00:48:10.957Z,2.89
2023-01-23T00:50:37.572Z,2.86
2023-01-23T00:53:04.361Z,2.84
2023-01-23T00:55:30.963Z,2.84
2023-01-23T00:57:57.666Z,2.83
2023-01-23T01:00:24.469Z,2.83
2023-01-23T01:02:51.264Z,2.80
2023-01-23T01:05:26.950Z,2.78
2023-01-23T01:07:53.631Z,2.76
2023-01-23T01:10:20.591Z,2.75
2023-01-23T01:12:47.541Z,2.74
2023-01-23T01:15:21.647Z,2.72
2023-01-23T01:17:48.444Z,2.72
2023-01-23T01:20:16.049Z,2.70
2023-01-23T01:22:42.755Z,2.68
2023-01-23T01:25:09.643Z,2.66
2023-01-23T01:27:36.508Z,2.63
2023-01-23T01:30:03.723Z,2.64
2023-01-23T01:32:30.403Z,2.63
2023-01-23T01:34:57.047Z,2.61
2023-01-23T01:37:25.410Z,2.63
2023-01-23T01:39:52.045Z,2.67
2023-01-23T01:42:18.735Z,2.67
2023-01-23T01:44:53.373Z,2.66
2023-01-23T01:47:20.000Z,2.66
2023-01-23T01:49:47.055Z,2.67
2023-01-23T01:52:14.755Z,2.64
2023-01-23T01:54:47.491Z,2.63
2023-01-23T01:57:14.157Z,2.62
2023-01-23T01:59:47.591Z,2.60
2023-01-23T02:02:20.173Z,2.57
2023-01-23T02:04:48.926Z,2.54
2023-01-23T02:07:20.568Z,2.53
2023-01-23T02:09:47.722Z,2.51
2023-01-23T02:12:14.357Z,2.49
2023-01-23T02:14:41.211Z,2.47
2023-01-23T02:17:08.029Z,2.44
2023-01-23T02:19:40.345Z,2.41
2023-01-23T02:22:27.279Z,2.39
2023-01-23T02:24:59.888Z,2.36
2023-01-23T02:27:26.680Z,2.34
2023-01-23T02:29:56.591Z,2.31
2023-01-23T02:32:24.712Z,2.31
2023-01-23T02:34:54.595Z,2.30
2023-01-23T02:37:21.946Z,2.31
2023-01-23T02:39:48.599Z,2.32
2023-01-23T02:42:15.461Z,2.33
2023-01-23T02:44:42.165Z,2.31
2023-01-23T02:47:11.963Z,2.32
2023-01-23T02:49:39.392Z,2.32
2023-01-23T02:52:06.790Z,2.33
2023-01-23T02:54:33.522Z,2.29
2023-01-23T02:57:00.247Z,2.27
2023-01-23T02:59:45.309Z,2.25
2023-01-23T03:02:12.477Z,2.24
2023-01-23T03:04:39.257Z,2.21
2023-01-23T03:07:05.906Z,2.21
2023-01-23T03:09:33.565Z,2.20
2023-01-23T03:12:01.038Z,2.19
2023-01-23T03:14:28.340Z,2.18
2023-01-23T03:16:55.387Z,2.20
2023-01-23T03:19:23.818Z,2.23
2023-01-23T03:21:51.219Z,2.22
2023-01-23T03:24:18.434Z,2.19
2023-01-23T03:26:47.540Z,2.14
2023-01-23T03:29:37.606Z,2.07
2023-01-23T03:32:04.329Z,1.98
2023-01-23T03:34:31.910Z,1.91
2023-01-23T03:36:58.882Z,1.83
2023-01-23T03:39:54.812Z,1.80
2023-01-23T03:42:21.558Z,1.73
2023-01-23T03:44:48.497Z,1.68
2023-01-23T03:47:15.137Z,1.67
2023-01-23T03:49:41.902Z,1.63
2023-01-23T03:52:08.614Z,1.59
2023-01-23T03:54:35.218Z,1.54
2023-01-23T03:57:01.826Z,1.57
2023-01-23T03:59:28.496Z,1.62
2023-01-23T04:01:55.946Z,1.66
2023-01-23T04:04:22.757Z,1.68
2023-01-23T04:06:49.389Z,1.70
2023-01-23T04:09:16.045Z,1.75
2023-01-23T04:11:42.893Z,1.79
2023-01-23T04:14:09.676Z,1.76
2023-01-23T04:16:36.335Z,1.77
2023-01-23T04:19:03.124Z,1.73
2023-01-23T04:21:29.734Z,1.73
2023-01-23T04:23:56.382Z,1.73
2023-01-23T04:26:23.198Z,1.73
2023-01-23T04:28:49.840Z,1.70
2023-01-23T04:31:16.767Z,1.68
2023-01-23T04:33:43.564Z,1.64
2023-01-23T04:36:10.701Z,1.62
2023-01-23T04:38:37.341Z,1.60
2023-01-23T04:41:04.398Z,1.55
2023-01-23T04:43:31.102Z,1.49
2023-01-23T04:45:57.949Z,1.42
2023-01-23T04:48:25.072Z,1.37
2023-01-23T04:50:51.887Z,1.26
2023-01-23T04:53:18.634Z,1.28
2023-01-23T04:55:47.167Z,1.30
2023-01-23T04:58:13.863Z,1.25
2023-01-23T05:00:40.641Z,1.21
2023-01-23T05:03:07.287Z,1.16
2023-01-23T05:05:33.991Z,1.20
2023-01-23T05:08:00.682Z,1.20
2023-01-23T05:10:27.375Z,1.16
2023-01-23T05:12:54.192Z,1.11
2023-01-23T05:15:21.491Z,1.08
2023-01-23T05:17:48.906Z,1.05
2023-01-23T05:20:15.692Z,1.05
2023-01-23T05:22:52.711Z,1.04
2023-01-23T05:25:20.736Z,1.05
2023-01-23T05:27:47.619Z,1.08
2023-01-23T05:30:14.619Z,1.06
2023-01-23T05:32:41.272Z,1.06
2023-01-23T05:35:08.100Z,1.05
2023-01-23T05:37:34.869Z,1.05
2023-01-23T05:40:01.501Z,1.05
2023-01-23T05:42:28.240Z,1.04
2023-01-23T05:44:54.955Z,1.05
2023-01-23T05:47:21.656Z,1.03
2023-01-23T05:49:48.369Z,1.03
2023-01-23T05:52:15.047Z,1.05
2023-01-23T05:54:46.739Z,1.05
2023-01-23T05:57:13.395Z,1.03
2023-01-23T05:59:40.052Z,1.03
2023-01-23T06:02:06.762Z,1.04
2023-01-23T06:04:33.462Z,1.04
2023-01-23T06:07:00.140Z,1.02
2023-01-23T06:09:26.765Z,1.05
2023-01-23T06:11:53.469Z,1.01
2023-01-23T06:14:20.261Z,0.99
2023-01-23T06:16:46.869Z,0.96
2023-01-23T06:19:13.501Z,0.95
2023-01-23T06:21:40.179Z,0.90
2023-01-23T06:24:06.906Z,0.86
2023-01-23T06:26:33.650Z,0.83
2023-01-23T06:29:00.347Z,0.82
2023-01-23T06:31:27.156Z,0.82
2023-01-23T06:33:53.989Z,0.81
2023-01-23T06:36:20.611Z,0.80
2023-01-23T06:38:47.252Z,0.82
2023-01-23T06:41:13.895Z,0.87
2023-01-23T06:43:40.534Z,0.88
2023-01-23T06:46:10.336Z,0.91
2023-01-23T06:48:37.322Z,0.90
2023-01-23T06:51:04.255Z,0.91
2023-01-23T06:53:31.381Z,0.89
2023-01-23T06:56:01.502Z,0.86
2023-01-23T06:58:29.238Z,0.83
2023-01-23T07:00:56.000Z,0.77
2023-01-23T07:03:22.787Z,0.73
2023-01-23T07:05:49.484Z,0.67
2023-01-23T07:08:16.649Z,0.59
2023-01-23T07:10:43.470Z,0.54
2023-01-23T07:13:11.814Z,0.48
2023-01-23T07:15:40.882Z,0.43
2023-01-23T07:18:07.889Z,0.39
2023-01-23T07:20:34.491Z,0.39
2023-01-23T07:23:02.519Z,0.39
2023-01-23T07:25:30.686Z,0.41
2023-01-23T07:27:57.468Z,0.41
2023-01-23T07:30:24.185Z,0.40
2023-01-23T07:32:50.977Z,0.43
2023-01-23T07:35:17.771Z,0.43
2023-01-23T07:37:44.502Z,0.45
2023-01-23T07:40:11.922Z,0.43
2023-01-23T07:42:39.082Z,0.50
2023-01-23T07:45:10.383Z,0.52
2023-01-23T07:47:39.729Z,0.54
2023-01-23T07:50:07.315Z,0.59
2023-01-23T07:52:34.192Z,0.63
2023-01-23T07:58:13.722Z,0.65
2023-01-23T08:00:42.107Z,0.64
2023-01-23T08:03:08.916Z,0.67
2023-01-23T08:05:35.666Z,0.73
2023-01-23T08:08:12.991Z,0.74
2023-01-23T08:10:40.900Z,0.73
2023-01-23T08:13:07.737Z,0.76
2023-01-23T08:15:34.622Z,0.79
2023-01-23T08:18:01.257Z,0.78
2023-01-23T08:20:27.981Z,0.79
2023-01-23T08:22:54.693Z,0.80
2023-01-23T08:25:22.126Z,0.80
2023-01-23T08:27:48.768Z,0.79
2023-01-23T08:30:15.569Z,0.82
2023-01-23T08:32:42.240Z,0.86
2023-01-23T08:35:09.195Z,0.88
2023-01-23T08:37:37.135Z,0.90
2023-01-23T08:40:04.365Z,0.90
2023-01-23T08:42:30.999Z,0.92
2023-01-23T08:44:57.685Z,0.93
2023-01-23T08:47:24.421Z,0.96
2023-01-23T08:49:51.113Z,1.01
2023-01-23T08:52:17.814Z,1.04
2023-01-23T08:54:46.867Z,1.11
2023-01-23T08:57:13.593Z,1.17
2023-01-23T08:59:40.442Z,1.22
2023-01-23T09:02:07.206Z,1.25
2023-01-23T09:04:33.912Z,1.33
2023-01-23T09:07:00.633Z,1.34
2023-01-23T09:09:29.188Z,1.35
2023-01-23T09:11:55.915Z,1.37
2023-01-23T09:14:22.675Z,1.38
2023-01-23T09:16:49.347Z,1.40
2023-01-23T09:19:16.231Z,1.39
2023-01-23T09:21:43.039Z,1.41
2023-01-23T09:24:09.860Z,1.63
2023-01-23T09:26:36.645Z,1.89
2023-01-23T09:29:03.340Z,2.05
2023-01-23T09:31:30.311Z,2.03
2023-01-23T09:33:57.958Z,2.01
2023-01-23T09:36:41.379Z,1.98
2023-01-23T09:39:09.900Z,2.00
2023-01-23T09:41:36.789Z,2.02
2023-01-23T09:44:07.627Z,2.06
2023-01-23T09:46:40.821Z,2.05
2023-01-23T09:49:14.355Z,2.08
2023-01-23T09:51:56.973Z,2.10
2023-01-23T09:54:54.365Z,2.13
2023-01-23T09:57:20.989Z,2.19
2023-01-23T10:00:04.067Z,2.23
2023-01-23T10:02:31.003Z,2.30
2023-01-23T10:05:02.911Z,2.36
2023-01-23T10:07:42.706Z,2.43
2023-01-23T10:10:47.768Z,2.50
2023-01-23T10:13:16.836Z,2.58
2023-01-23T10:15:57.679Z,2.65
2023-01-23T10:18:47.518Z,2.71
2023-01-23T10:21:41.583Z,2.77
2023-01-23T10:24:14.057Z,2.83
2023-01-23T10:26:43.200Z,2.90
2023-01-23T10:29:24.328Z,2.94
2023-01-23T10:31:56.561Z,2.99
2023-01-23T10:34:35.087Z,3.06
2023-01-23T10:37:19.189Z,3.07
2023-01-23T10:39:59.247Z,3.09
2023-01-23T10:42:27.149Z,3.15
2023-01-23T10:45:00.961Z,3.20
2023-01-23T10:47:33.223Z,3.28
2023-01-23T10:50:01.097Z,3.33
2023-01-23T10:52:37.148Z,3.36
2023-01-23T10:55:06.444Z,3.42
2023-01-23T10:57:44.055Z,3.49
2023-01-23T11:00:29.312Z,3.52
2023-01-23T11:02:56.127Z,3.54
2023-01-23T11:05:46.792Z,3.58
2023-01-23T11:08:28.402Z,3.65
2023-01-23T11:11:12.080Z,3.75
2023-01-23T11:13:38.704Z,3.84
2023-01-23T11:16:05.688Z,3.96
2023-01-23T11:18:34.647Z,4.02
2023-01-23T11:21:01.771Z,4.12
2023-01-23T11:23:29.723Z,4.19
2023-01-23T11:25:56.857Z,4.25
2023-01-23T11:28:30.830Z,4.31
2023-01-23T11:31:13.814Z,4.38
2023-01-23T11:33:52.765Z,4.44
2023-01-23T11:36:19.472Z,4.51
2023-01-23T11:38:58.657Z,4.53
2023-01-23T11:41:29.323Z,4.60
2023-01-23T11:43:56.119Z,4.66
2023-01-23T11:46:22.832Z,4.75
2023-01-23T11:48:49.519Z,4.80
2023-01-23T11:51:21.678Z,4.86
2023-01-23T11:54:08.654Z,4.92
2023-01-23T11:56:47.529Z,5.01
2023-01-23T11:59:17.413Z,5.08
2023-01-23T12:01:58.371Z,5.15
2023-01-23T12:04:57.943Z,5.26
2023-01-23T12:07:25.317Z,5.32
2023-01-23T12:09:55.162Z,5.39
2023-01-23T12:12:21.769Z,5.44
2023-01-23T12:14:52.063Z,5.51
2023-01-23T12:17:21.787Z,5.62
2023-01-23T12:19:57.190Z,5.70
2023-01-23T12:22:44.290Z,5.76
2023-01-23T12:25:29.243Z,5.82
2023-01-23T12:28:02.476Z,5.88
2023-01-23T12:30:29.367Z,5.90
2023-01-23T12:33:14.807Z,5.92
2023-01-23T12:35:44.202Z,6.00
2023-01-23T12:38:20.028Z,6.06
2023-01-23T12:40:59.262Z,6.06
2023-01-23T12:43:38.647Z,6.07
2023-01-23T12:46:18.071Z,6.12
2023-01-23T12:49:04.949Z,6.19
2023-01-23T12:51:36.842Z,6.22
2023-01-23T12:54:06.980Z,6.25
2023-01-23T12:56:36.185Z,6.29
2023-01-23T12:59:11.444Z,6.34
2023-01-23T13:01:55.202Z,6.38
2023-01-23T13:04:35.912Z,6.40
2023-01-23T13:07:11.779Z,6.44
2023-01-23T13:09:41.640Z,6.48
2023-01-23T13:12:22.672Z,6.56
2023-01-23T13:15:15.398Z,6.62
2023-01-23T13:17:42.204Z,6.66
2023-01-23T13:20:39.958Z,6.70
2023-01-23T13:23:25.173Z,6.69
2023-01-23T13:26:12.132Z,6.72
2023-01-23T13:28:46.032Z,6.77
2023-01-23T13:31:32.263Z,6.79
2023-01-23T13:34:14.660Z,6.82
2023-01-23T13:36:42.435Z,6.76
2023-01-23T13:39:15.279Z,6.73
2023-01-23T13:41:42.792Z,6.73
2023-01-23T13:44:40.739Z,6.76
2023-01-23T14:21:52.789Z,6.69
2023-01-23T14:24:23.683Z,6.71
2023-01-23T14:26:51.599Z,6.71
2023-01-23T14:29:20.943Z,6.73
2023-01-23T14:31:47.963Z,6.77
2023-01-23T14:34:17.926Z,6.83
2023-01-23T14:36:59.851Z,6.84
2023-01-23T14:39:27.700Z,6.84
2023-01-23T14:41:56.298Z,6.89
2023-01-23T14:44:50.181Z,6.91
2023-01-23T14:47:19.713Z,6.91
2023-01-23T14:49:48.391Z,6.93
2023-01-23T14:52:26.057Z,6.92
2023-01-23T14:54:57.771Z,6.90
2023-01-23T14:57:27.364Z,6.93
2023-01-23T14:59:58.097Z,6.94
2023-01-23T15:02:24.772Z,6.93
2023-01-23T15:05:16.813Z,7.02
2023-01-23T15:07:46.349Z,7.00
2023-01-23T15:10:15.085Z,7.00
2023-01-23T15:12:47.746Z,6.98
2023-01-23T15:15:17.420Z,6.97
2023-01-23T15:17:45.476Z,6.93
2023-01-23T15:20:30.933Z,6.86
2023-01-23T15:22:58.566Z,6.80
2023-01-23T15:25:29.254Z,6.78
2023-01-23T15:27:56.051Z,6.78
2023-01-23T15:30:31.697Z,6.79
2023-01-23T15:32:58.926Z,6.77
2023-01-23T15:35:26.181Z,6.86
2023-01-23T15:37:56.227Z,6.83
2023-01-23T15:40:26.906Z,6.79
2023-01-23T15:43:03.999Z,6.77
2023-01-23T15:45:30.677Z,6.72
2023-01-23T15:47:57.329Z,6.69
2023-01-23T15:50:23.995Z,6.68
2023-01-23T15:52:52.493Z,6.69
2023-01-23T15:55:20.839Z,6.67
2023-01-23T15:57:48.189Z,6.69
2023-01-23T16:00:19.081Z,6.73
2023-01-23T16:02:55.641Z,6.70
2023-01-23T16:05:24.712Z,6.65
2023-01-23T16:07:52.012Z,6.62
2023-01-23T16:10:18.799Z,6.61
2023-01-23T16:12:48.906Z,6.63
2023-01-23T16:15:16.991Z,6.66
2023-01-23T16:17:44.007Z,6.71
2023-01-23T16:20:21.454Z,6.73
2023-01-23T16:23:15.133Z,6.69
2023-01-23T16:25:46.169Z,6.67
2023-01-23T16:28:17.309Z,6.69
2023-01-23T16:30:44.463Z,6.76
2023-01-23T16:33:11.204Z,6.76
2023-01-23T16:35:38.033Z,6.75
2023-01-23T16:38:05.297Z,6.70
2023-01-23T16:40:32.897Z,6.69
2023-01-23T16:43:00.377Z,6.73
2023-01-23T16:45:27.825Z,6.72
2023-01-23T16:47:55.104Z,6.67
2023-01-23T16:50:41.636Z,6.64
2023-01-23T16:53:19.998Z,6.62
2023-01-23T16:55:46.915Z,6.64
2023-01-23T16:58:16.192Z,6.65
2023-01-23T17:00:43.030Z,6.67
2023-01-23T17:03:10.396Z,6.71
2023-01-23T17:05:37.470Z,6.73
2023-01-23T17:08:23.391Z,6.73
2023-01-23T17:10:52.066Z,6.74
2023-01-23T17:13:19.871Z,6.76
2023-01-23T17:15:47.438Z,6.76
2023-01-23T17:18:22.212Z,6.73
2023-01-23T17:20:49.399Z,6.76
2023-01-23T17:23:16.154Z,6.79
2023-01-23T17:25:59.820Z,6.80
2023-01-23T17:28:27.672Z,6.77
2023-01-23T17:30:55.108Z,6.77
2023-01-23T17:33:23.341Z,6.76
2023-01-23T17:35:50.914Z,6.76
2023-01-23T17:38:31.027Z,6.78
2023-01-23T17:40:57.693Z,6.77
2023-01-23T17:43:24.372Z,6.78
2023-01-23T17:45:51.519Z,6.77
2023-01-23T17:48:27.606Z,6.76
2023-01-23T17:50:54.729Z,6.73
2023-01-23T17:53:21.757Z,6.72
2023-01-23T17:55:53.225Z,6.71
2023-01-23T17:58:20.525Z,6.71
2023-01-23T18:00:51.069Z,6.72
2023-01-23T18:03:20.751Z,6.75
2023-01-23T18:05:47.759Z,6.75
2023-01-23T18:08:15.437Z,6.74
2023-01-23T18:10:46.295Z,6.76
2023-01-23T18:13:28.470Z,6.74
2023-01-23T18:16:30.327Z,6.75
2023-01-23T18:19:01.575Z,6.74
2023-01-23T18:21:28.650Z,6.76
2023-01-23T18:23:55.949Z,6.76
2023-01-23T18:26:43.035Z,6.76
2023-01-23T18:29:09.857Z,6.78
2023-01-23T18:31:51.854Z,6.79
2023-01-23T18:34:35.653Z,6.75
2023-01-23T18:37:05.364Z,6.73
2023-01-23T18:39:32.278Z,6.76
2023-01-23T18:42:02.383Z,6.73
2023-01-23T18:44:29.997Z,6.71
2023-01-23T18:46:57.094Z,6.71
2023-01-23T18:49:32.283Z,6.71
2023-01-23T18:52:14.699Z,6.73
2023-01-23T18:55:05.364Z,6.70
2023-01-23T18:57:47.548Z,6.67
2023-01-23T19:00:17.347Z,6.65
2023-01-23T19:02:47.182Z,6.66
2023-01-23T19:05:16.907Z,6.65
2023-01-23T19:07:45.226Z,6.63
2023-01-23T19:10:15.799Z,6.64
2023-01-23T19:12:45.570Z,6.64
2023-01-23T19:15:19.397Z,6.64
2023-01-23T19:18:06.680Z,6.65
2023-01-23T19:20:42.259Z,6.63
2023-01-23T19:23:32.181Z,6.61
2023-01-23T19:25:59.221Z,6.62
2023-01-23T19:28:26.276Z,6.61
2023-01-23T19:30:53.101Z,6.60
2023-01-23T19:33:20.235Z,6.55
2023-01-23T19:35:47.570Z,6.55
2023-01-23T19:38:15.220Z,6.51
2023-01-23T19:40:42.764Z,6.47
2023-01-23T19:43:16.960Z,6.48
2023-01-23T19:45:44.233Z,6.43
2023-01-23T19:48:11.267Z,6.43
2023-01-23T19:50:38.609Z,6.43
2023-01-23T19:53:05.898Z,6.48
2023-01-23T19:55:34.331Z,6.50
2023-01-23T19:58:01.229Z,6.53
2023-01-23T20:00:29.873Z,6.56
2023-01-23T20:02:56.961Z,6.58
2023-01-23T20:05:24.029Z,6.54
2023-01-23T20:07:50.997Z,6.53
2023-01-23T20:10:17.873Z,6.49
2023-01-23T20:12:52.385Z,6.48
2023-01-23T20:15:23.551Z,6.47
2023-01-23T20:17:51.621Z,6.42
2023-01-23T20:20:19.174Z,6.36
2023-01-23T20:22:46.269Z,6.37
2023-01-23T20:25:14.568Z,6.38
2023-01-23T20:27:41.584Z,6.41
2023-01-23T20:30:11.134Z,6.43
2023-01-23T20:32:38.258Z,6.48
2023-01-23T20:35:05.401Z,6.52
2023-01-23T20:37:32.080Z,6.56
2023-01-23T20:39:59.022Z,6.57
2023-01-23T20:42:25.719Z,6.56
2023-01-23T20:44:57.114Z,6.55
2023-01-23T20:47:23.873Z,6.56
2023-01-23T20:49:50.709Z,6.55
2023-01-23T20:52:35.713Z,6.60
2023-01-23T20:55:02.434Z,6.64
2023-01-23T20:57:49.605Z,6.64
2023-01-23T21:03:42.135Z,6.60
2023-01-23T21:06:09.738Z,6.64
2023-01-23T21:08:36.802Z,6.64
2023-01-23T21:11:11.438Z,6.63
2023-01-23T21:13:38.191Z,6.60
2023-01-23T21:16:06.507Z,6.59
2023-01-23T21:18:36.818Z,6.59
2023-01-23T21:21:08.140Z,6.57
2023-01-23T21:23:35.366Z,6.61
2023-01-23T21:26:02.790Z,6.62
2023-01-23T21:28:30.189Z,6.58
2023-01-23T21:30:57.040Z,6.58
2023-01-23T21:33:23.901Z,6.53
2023-01-23T21:35:51.287Z,6.48
2023-01-23T21:38:17.941Z,6.45
2023-01-23T21:40:44.759Z,6.45
2023-01-23T21:43:11.419Z,6.44
2023-01-23T21:45:38.230Z,6.45
2023-01-23T21:48:05.343Z,6.44
2023-01-23T21:50:32.094Z,6.51
2023-01-23T21:52:58.788Z,6.52
2023-01-23T21:55:25.473Z,6.46
2023-01-23T21:57:52.281Z,6.48
2023-01-23T22:00:37.505Z,6.46
2023-01-23T22:03:04.213Z,6.49
2023-01-23T22:05:33.229Z,6.52
2023-01-23T22:07:59.868Z,6.61
2023-01-23T22:10:26.501Z,6.58
2023-01-23T22:12:53.170Z,6.63
2023-01-23T22:15:20.566Z,6.60
2023-01-23T22:17:47.831Z,6.57
2023-01-23T22:20:32.758Z,6.57
2023-01-23T22:23:13.210Z,6.60
2023-01-23T22:25:40.465Z,6.61
2023-01-23T22:28:27.568Z,6.62
2023-01-23T22:30:54.764Z,6.61
2023-01-23T22:33:22.503Z,6.59
2023-01-23T22:35:50.883Z,6.57
2023-01-23T22:38:17.898Z,6.55
2023-01-23T22:40:44.917Z,6.54
2023-01-23T22:43:12.216Z,6.66
2023-01-23T22:45:39.390Z,6.63
2023-01-23T22:48:06.723Z,6.60
2023-01-23T22:50:33.625Z,6.59
2023-01-23T22:53:00.669Z,6.58
2023-01-23T22:55:27.275Z,6.58
2023-01-23T22:57:53.872Z,6.58
2023-01-23T23:00:20.868Z,6.63
2023-01-23T23:02:47.575Z,6.63
2023-01-23T23:05:14.451Z,6.65
2023-01-23T23:07:41.205Z,6.66
2023-01-23T23:10:08.778Z,6.63
2023-01-23T23:12:35.576Z,6.61
2023-01-23T23:15:03.241Z,6.53
2023-01-23T23:17:30.648Z,6.51
2023-01-23T23:19:57.303Z,6.51
2023-01-23T23:22:23.956Z,6.52
2023-01-23T23:24:53.250Z,6.50
2023-01-23T23:27:19.900Z,6.53
2023-01-23T23:29:46.609Z,6.56
2023-01-23T23:32:13.381Z,6.57
2023-01-23T23:34:46.488Z,6.58
2023-01-23T23:37:13.192Z,6.68
2023-01-23T23:39:39.923Z,6.67
2023-01-23T23:42:06.668Z,6.66
2023-01-23T23:44:33.518Z,6.68
2023-01-23T23:47:21.571Z,6.71
2023-01-23T23:49:48.815Z,6.71
2023-01-23T23:52:15.455Z,6.68
2023-01-23T23:54:42.080Z,6.66
2023-01-23T23:57:08.776Z,6.65
2023-01-23T23:59:35.543Z,6.67
